sensor_id;sensor_type;location;lat;lon;timestamp;P1;durP1;ratioP1;P2;durP2;ratioP2
46653;SDS011;38960;51.074;17.004;2022-07-26T00:01:33;10.50;;;7.15;;
46653;SDS011;38960;51.074;17.004;2022-07-26T00:04:01;9.65;;;7.43;;
46653;SDS011;38960;51.074;17.004;2022-07-26T00:06:29;13.90;;;7.20;;
46653;SDS011;38960;51.074;17.004;2022-07-26T00:08:55;9.77;;;7.40;;
46653;SDS011;38960;51.074;17.004;2022-07-26T00:11:21;9.13;;;6.80;;
46653;SDS011;38960;51.074;17.004;2022-07-26T00:13:47;8.02;;;7.22;;
46653;SDS011;38960;51.074;17.004;2022-07-26T00:16:15;13.82;;;7.78;;
46653;SDS011;38960;51.074;17.004;2022-07-26T00:18:41;9.73;;;7.88;;
46653;SDS011;38960;51.074;17.004;2022-07-26T00:21:07;10.30;;;7.82;;
46653;SDS011;38960;51.074;17.004;2022-07-26T00:23:32;9.65;;;7.85;;
46653;SDS011;38960;51.074;17.004;2022-07-26T00:25:58;8.02;;;7.32;;
46653;SDS011;38960;51.074;17.004;2022-07-26T00:28:23;14.07;;;7.32;;
46653;SDS011;38960;51.074;17.004;2022-07-26T00:30:49;8.52;;;7.60;;
46653;SDS011;38960;51.074;17.004;2022-07-26T00:33:15;8.27;;;7.47;;
46653;SDS011;38960;51.074;17.004;2022-07-26T00:35:40;9.15;;;7.38;;
46653;SDS011;38960;51.074;17.004;2022-07-26T00:38:06;15.55;;;8.15;;
46653;SDS011;38960;51.074;17.004;2022-07-26T00:40:31;16.73;;;7.97;;
46653;SDS011;38960;51.074;17.004;2022-07-26T00:42:57;9.80;;;7.57;;
46653;SDS011;38960;51.074;17.004;2022-07-26T00:45:23;9.77;;;7.40;;
46653;SDS011;38960;51.074;17.004;2022-07-26T00:47:49;9.63;;;8.07;;
46653;SDS011;38960;51.074;17.004;2022-07-26T00:50:15;7.55;;;7.03;;
46653;SDS011;38960;51.074;17.004;2022-07-26T00:52:42;16.65;;;8.32;;
46653;SDS011;38960;51.074;17.004;2022-07-26T00:55:09;10.50;;;7.95;;
46653;SDS011;38960;51.074;17.004;2022-07-26T00:57:35;8.80;;;7.90;;
46653;SDS011;38960;51.074;17.004;2022-07-26T01:00:05;8.00;;;7.30;;
46653;SDS011;38960;51.074;17.004;2022-07-26T01:02:32;10.10;;;7.78;;
46653;SDS011;38960;51.074;17.004;2022-07-26T01:04:57;11.95;;;7.53;;
46653;SDS011;38960;51.074;17.004;2022-07-26T01:07:23;7.82;;;7.10;;
46653;SDS011;38960;51.074;17.004;2022-07-26T01:09:48;8.10;;;7.22;;
46653;SDS011;38960;51.074;17.004;2022-07-26T01:12:14;8.52;;;7.82;;
46653;SDS011;38960;51.074;17.004;2022-07-26T01:14:43;8.48;;;6.75;;
46653;SDS011;38960;51.074;17.004;2022-07-26T01:17:10;15.43;;;7.82;;
46653;SDS011;38960;51.074;17.004;2022-07-26T01:19:36;9.00;;;7.25;;
46653;SDS011;38960;51.074;17.004;2022-07-26T01:22:02;9.75;;;7.47;;
46653;SDS011;38960;51.074;17.004;2022-07-26T01:24:27;8.55;;;7.85;;
46653;SDS011;38960;51.074;17.004;2022-07-26T01:26:56;8.73;;;7.93;;
46653;SDS011;38960;51.074;17.004;2022-07-26T01:29:23;10.45;;;8.00;;
46653;SDS011;38960;51.074;17.004;2022-07-26T01:31:49;10.60;;;8.18;;
46653;SDS011;38960;51.074;17.004;2022-07-26T01:34:15;8.57;;;7.78;;
46653;SDS011;38960;51.074;17.004;2022-07-26T01:36:41;9.00;;;8.05;;
46653;SDS011;38960;51.074;17.004;2022-07-26T01:39:07;9.93;;;8.02;;
46653;SDS011;38960;51.074;17.004;2022-07-26T01:41:32;8.43;;;7.65;;
46653;SDS011;38960;51.074;17.004;2022-07-26T01:43:58;10.57;;;7.80;;
46653;SDS011;38960;51.074;17.004;2022-07-26T01:46:23;11.48;;;7.30;;
46653;SDS011;38960;51.074;17.004;2022-07-26T01:48:49;9.98;;;7.75;;
46653;SDS011;38960;51.074;17.004;2022-07-26T01:51:15;8.80;;;7.63;;
46653;SDS011;38960;51.074;17.004;2022-07-26T01:53:41;8.70;;;7.95;;
46653;SDS011;38960;51.074;17.004;2022-07-26T01:56:10;12.68;;;7.88;;
46653;SDS011;38960;51.074;17.004;2022-07-26T01:58:36;9.57;;;7.97;;
46653;SDS011;38960;51.074;17.004;2022-07-26T02:01:02;8.57;;;7.85;;
46653;SDS011;38960;51.074;17.004;2022-07-26T02:03:28;9.40;;;8.45;;
46653;SDS011;38960;51.074;17.004;2022-07-26T02:05:55;12.18;;;7.85;;
46653;SDS011;38960;51.074;17.004;2022-07-26T02:08:21;16.77;;;8.23;;
46653;SDS011;38960;51.074;17.004;2022-07-26T02:10:47;12.20;;;9.00;;
46653;SDS011;38960;51.074;17.004;2022-07-26T02:13:32;8.23;;;7.53;;
46653;SDS011;38960;51.074;17.004;2022-07-26T02:16:00;9.63;;;8.75;;
46653;SDS011;38960;51.074;17.004;2022-07-26T02:18:27;8.45;;;7.75;;
46653;SDS011;38960;51.074;17.004;2022-07-26T02:20:53;8.77;;;8.07;;
46653;SDS011;38960;51.074;17.004;2022-07-26T02:23:19;9.32;;;8.40;;
46653;SDS011;38960;51.074;17.004;2022-07-26T02:25:46;9.25;;;7.88;;
46653;SDS011;38960;51.074;17.004;2022-07-26T02:28:12;8.93;;;8.02;;
46653;SDS011;38960;51.074;17.004;2022-07-26T02:30:38;21.08;;;10.38;;
46653;SDS011;38960;51.074;17.004;2022-07-26T02:33:03;20.08;;;10.07;;
46653;SDS011;38960;51.074;17.004;2022-07-26T02:35:29;12.98;;;9.75;;
46653;SDS011;38960;51.074;17.004;2022-07-26T02:38:06;17.48;;;10.07;;
46653;SDS011;38960;51.074;17.004;2022-07-26T02:40:33;13.40;;;10.13;;
46653;SDS011;38960;51.074;17.004;2022-07-26T02:42:59;14.00;;;10.60;;
46653;SDS011;38960;51.074;17.004;2022-07-26T02:45:25;15.43;;;10.10;;
46653;SDS011;38960;51.074;17.004;2022-07-26T02:47:52;12.73;;;11.35;;
46653;SDS011;38960;51.074;17.004;2022-07-26T02:50:19;19.73;;;12.02;;
46653;SDS011;38960;51.074;17.004;2022-07-26T02:52:46;14.65;;;11.30;;
46653;SDS011;38960;51.074;17.004;2022-07-26T02:55:12;21.75;;;12.43;;
46653;SDS011;38960;51.074;17.004;2022-07-26T02:57:42;15.55;;;11.70;;
46653;SDS011;38960;51.074;17.004;2022-07-26T03:00:08;12.82;;;11.40;;
46653;SDS011;38960;51.074;17.004;2022-07-26T03:02:35;13.55;;;11.32;;
46653;SDS011;38960;51.074;17.004;2022-07-26T03:05:01;11.80;;;10.63;;
46653;SDS011;38960;51.074;17.004;2022-07-26T03:07:27;13.40;;;11.25;;
46653;SDS011;38960;51.074;17.004;2022-07-26T03:09:53;15.10;;;12.00;;
46653;SDS011;38960;51.074;17.004;2022-07-26T03:12:18;17.30;;;13.45;;
46653;SDS011;38960;51.074;17.004;2022-07-26T03:14:44;13.73;;;12.43;;
46653;SDS011;38960;51.074;17.004;2022-07-26T03:17:09;14.48;;;11.60;;
46653;SDS011;38960;51.074;17.004;2022-07-26T03:19:35;15.75;;;11.70;;
46653;SDS011;38960;51.074;17.004;2022-07-26T03:22:01;13.52;;;11.95;;
46653;SDS011;38960;51.074;17.004;2022-07-26T03:24:26;13.23;;;11.98;;
46653;SDS011;38960;51.074;17.004;2022-07-26T03:26:54;13.82;;;12.57;;
46653;SDS011;38960;51.074;17.004;2022-07-26T03:29:19;15.38;;;12.65;;
46653;SDS011;38960;51.074;17.004;2022-07-26T03:31:48;15.68;;;13.93;;
46653;SDS011;38960;51.074;17.004;2022-07-26T03:34:13;15.20;;;13.73;;
46653;SDS011;38960;51.074;17.004;2022-07-26T03:36:41;18.55;;;15.13;;
46653;SDS011;38960;51.074;17.004;2022-07-26T03:39:08;15.38;;;13.82;;
46653;SDS011;38960;51.074;17.004;2022-07-26T03:41:34;15.50;;;14.32;;
46653;SDS011;38960;51.074;17.004;2022-07-26T03:44:02;16.25;;;14.75;;
46653;SDS011;38960;51.074;17.004;2022-07-26T03:46:31;16.13;;;14.60;;
46653;SDS011;38960;51.074;17.004;2022-07-26T03:48:56;15.45;;;14.23;;
46653;SDS011;38960;51.074;17.004;2022-07-26T03:51:22;15.35;;;14.23;;
46653;SDS011;38960;51.074;17.004;2022-07-26T03:53:48;15.93;;;14.63;;
46653;SDS011;38960;51.074;17.004;2022-07-26T03:56:14;16.90;;;15.60;;
46653;SDS011;38960;51.074;17.004;2022-07-26T03:58:59;16.55;;;14.93;;
46653;SDS011;38960;51.074;17.004;2022-07-26T04:01:26;16.75;;;15.27;;
46653;SDS011;38960;51.074;17.004;2022-07-26T04:03:51;16.17;;;14.68;;
46653;SDS011;38960;51.074;17.004;2022-07-26T04:06:17;19.10;;;17.35;;
46653;SDS011;38960;51.074;17.004;2022-07-26T04:08:42;17.27;;;15.77;;
46653;SDS011;38960;51.074;17.004;2022-07-26T04:11:08;17.08;;;15.48;;
46653;SDS011;38960;51.074;17.004;2022-07-26T04:13:33;16.27;;;15.07;;
46653;SDS011;38960;51.074;17.004;2022-07-26T04:16:00;17.90;;;15.98;;
46653;SDS011;38960;51.074;17.004;2022-07-26T04:18:26;18.02;;;16.30;;
46653;SDS011;38960;51.074;17.004;2022-07-26T04:20:52;17.38;;;15.98;;
46653;SDS011;38960;51.074;17.004;2022-07-26T04:23:17;17.13;;;15.75;;
46653;SDS011;38960;51.074;17.004;2022-07-26T04:25:43;17.95;;;16.25;;
46653;SDS011;38960;51.074;17.004;2022-07-26T04:28:09;17.60;;;16.05;;
46653;SDS011;38960;51.074;17.004;2022-07-26T04:30:35;16.55;;;15.25;;
46653;SDS011;38960;51.074;17.004;2022-07-26T04:33:01;17.00;;;15.32;;
46653;SDS011;38960;51.074;17.004;2022-07-26T04:35:27;16.65;;;15.35;;
46653;SDS011;38960;51.074;17.004;2022-07-26T04:37:52;17.20;;;15.68;;
46653;SDS011;38960;51.074;17.004;2022-07-26T04:40:18;16.55;;;15.15;;
46653;SDS011;38960;51.074;17.004;2022-07-26T04:42:45;16.80;;;15.60;;
46653;SDS011;38960;51.074;17.004;2022-07-26T04:45:11;16.42;;;15.13;;
46653;SDS011;38960;51.074;17.004;2022-07-26T04:47:40;17.50;;;16.00;;
46653;SDS011;38960;51.074;17.004;2022-07-26T04:50:11;15.50;;;14.32;;
46653;SDS011;38960;51.074;17.004;2022-07-26T04:52:36;16.13;;;14.93;;
46653;SDS011;38960;51.074;17.004;2022-07-26T04:55:05;15.52;;;14.15;;
46653;SDS011;38960;51.074;17.004;2022-07-26T04:57:34;16.05;;;14.80;;
46653;SDS011;38960;51.074;17.004;2022-07-26T05:00:08;14.77;;;13.70;;
46653;SDS011;38960;51.074;17.004;2022-07-26T05:02:38;14.57;;;13.25;;
46653;SDS011;38960;51.074;17.004;2022-07-26T05:05:04;13.73;;;12.60;;
46653;SDS011;38960;51.074;17.004;2022-07-26T05:07:40;13.13;;;12.02;;
46653;SDS011;38960;51.074;17.004;2022-07-26T05:10:07;12.68;;;11.65;;
46653;SDS011;38960;51.074;17.004;2022-07-26T05:12:35;13.07;;;11.95;;
46653;SDS011;38960;51.074;17.004;2022-07-26T05:15:04;12.43;;;11.52;;
46653;SDS011;38960;51.074;17.004;2022-07-26T05:17:39;13.50;;;12.20;;
46653;SDS011;38960;51.074;17.004;2022-07-26T05:20:06;13.10;;;12.10;;
46653;SDS011;38960;51.074;17.004;2022-07-26T05:22:32;12.95;;;11.70;;
46653;SDS011;38960;51.074;17.004;2022-07-26T05:24:58;12.65;;;11.45;;
46653;SDS011;38960;51.074;17.004;2022-07-26T05:27:24;13.15;;;11.75;;
46653;SDS011;38960;51.074;17.004;2022-07-26T05:29:50;12.75;;;11.77;;
46653;SDS011;38960;51.074;17.004;2022-07-26T05:32:15;13.40;;;12.20;;
46653;SDS011;38960;51.074;17.004;2022-07-26T05:34:41;13.27;;;12.20;;
46653;SDS011;38960;51.074;17.004;2022-07-26T05:37:07;14.02;;;12.23;;
46653;SDS011;38960;51.074;17.004;2022-07-26T05:39:32;12.65;;;11.50;;
46653;SDS011;38960;51.074;17.004;2022-07-26T05:41:58;12.55;;;11.55;;
46653;SDS011;38960;51.074;17.004;2022-07-26T05:44:27;12.13;;;11.32;;
46653;SDS011;38960;51.074;17.004;2022-07-26T05:46:52;11.63;;;10.82;;
46653;SDS011;38960;51.074;17.004;2022-07-26T05:49:18;11.88;;;10.65;;
46653;SDS011;38960;51.074;17.004;2022-07-26T05:51:44;12.45;;;11.40;;
46653;SDS011;38960;51.074;17.004;2022-07-26T05:54:09;12.30;;;11.30;;
46653;SDS011;38960;51.074;17.004;2022-07-26T05:56:37;13.48;;;11.65;;
46653;SDS011;38960;51.074;17.004;2022-07-26T05:59:02;12.20;;;11.30;;
46653;SDS011;38960;51.074;17.004;2022-07-26T06:01:28;12.77;;;11.68;;
46653;SDS011;38960;51.074;17.004;2022-07-26T06:03:59;11.98;;;11.07;;
46653;SDS011;38960;51.074;17.004;2022-07-26T06:06:25;12.50;;;11.40;;
46653;SDS011;38960;51.074;17.004;2022-07-26T06:08:50;12.43;;;11.18;;
46653;SDS011;38960;51.074;17.004;2022-07-26T06:11:16;11.95;;;10.95;;
46653;SDS011;38960;51.074;17.004;2022-07-26T06:13:41;11.93;;;10.73;;
46653;SDS011;38960;51.074;17.004;2022-07-26T06:16:07;12.63;;;11.50;;
46653;SDS011;38960;51.074;17.004;2022-07-26T06:18:33;11.88;;;11.02;;
46653;SDS011;38960;51.074;17.004;2022-07-26T06:20:58;12.50;;;11.57;;
46653;SDS011;38960;51.074;17.004;2022-07-26T06:23:27;11.63;;;10.75;;
46653;SDS011;38960;51.074;17.004;2022-07-26T06:25:52;12.07;;;11.00;;
46653;SDS011;38960;51.074;17.004;2022-07-26T06:28:18;12.57;;;10.45;;
46653;SDS011;38960;51.074;17.004;2022-07-26T06:30:44;11.15;;;10.13;;
46653;SDS011;38960;51.074;17.004;2022-07-26T06:33:09;11.05;;;10.23;;
46653;SDS011;38960;51.074;17.004;2022-07-26T06:35:35;13.18;;;10.88;;
46653;SDS011;38960;51.074;17.004;2022-07-26T06:38:03;13.57;;;10.88;;
46653;SDS011;38960;51.074;17.004;2022-07-26T06:40:29;11.57;;;10.63;;
46653;SDS011;38960;51.074;17.004;2022-07-26T06:43:00;11.55;;;10.48;;
46653;SDS011;38960;51.074;17.004;2022-07-26T06:45:27;11.50;;;10.32;;
46653;SDS011;38960;51.074;17.004;2022-07-26T06:47:55;20.20;;;10.45;;
46653;SDS011;38960;51.074;17.004;2022-07-26T06:50:26;12.25;;;10.25;;
46653;SDS011;38960;51.074;17.004;2022-07-26T06:52:54;10.88;;;10.02;;
46653;SDS011;38960;51.074;17.004;2022-07-26T06:55:22;12.00;;;10.32;;
46653;SDS011;38960;51.074;17.004;2022-07-26T06:57:48;15.32;;;10.45;;
46653;SDS011;38960;51.074;17.004;2022-07-26T07:00:21;11.23;;;10.27;;
46653;SDS011;38960;51.074;17.004;2022-07-26T07:02:46;13.82;;;10.77;;
46653;SDS011;38960;51.074;17.004;2022-07-26T07:05:13;12.90;;;10.20;;
46653;SDS011;38960;51.074;17.004;2022-07-26T07:07:38;11.23;;;10.20;;
46653;SDS011;38960;51.074;17.004;2022-07-26T07:10:07;11.32;;;10.23;;
46653;SDS011;38960;51.074;17.004;2022-07-26T07:12:36;13.50;;;10.50;;
46653;SDS011;38960;51.074;17.004;2022-07-26T07:15:04;11.80;;;10.15;;
46653;SDS011;38960;51.074;17.004;2022-07-26T07:17:30;12.82;;;10.60;;
46653;SDS011;38960;51.074;17.004;2022-07-26T07:19:56;11.38;;;10.35;;
46653;SDS011;38960;51.074;17.004;2022-07-26T07:22:22;11.77;;;10.32;;
46653;SDS011;38960;51.074;17.004;2022-07-26T07:24:47;11.00;;;10.05;;
46653;SDS011;38960;51.074;17.004;2022-07-26T07:27:15;10.93;;;10.10;;
46653;SDS011;38960;51.074;17.004;2022-07-26T07:29:47;10.70;;;9.70;;
46653;SDS011;38960;51.074;17.004;2022-07-26T07:32:12;11.15;;;9.68;;
46653;SDS011;38960;51.074;17.004;2022-07-26T07:34:40;11.43;;;10.32;;
46653;SDS011;38960;51.074;17.004;2022-07-26T07:37:08;11.18;;;10.38;;
46653;SDS011;38960;51.074;17.004;2022-07-26T07:39:35;10.32;;;9.50;;
46653;SDS011;38960;51.074;17.004;2022-07-26T07:42:00;10.35;;;9.57;;
46653;SDS011;38960;51.074;17.004;2022-07-26T07:44:26;10.65;;;9.60;;
46653;SDS011;38960;51.074;17.004;2022-07-26T07:46:52;10.73;;;9.65;;
46653;SDS011;38960;51.074;17.004;2022-07-26T07:49:20;9.82;;;9.13;;
46653;SDS011;38960;51.074;17.004;2022-07-26T07:51:46;10.88;;;9.77;;
46653;SDS011;38960;51.074;17.004;2022-07-26T07:54:12;10.00;;;9.30;;
46653;SDS011;38960;51.074;17.004;2022-07-26T07:56:40;12.95;;;9.73;;
46653;SDS011;38960;51.074;17.004;2022-07-26T07:59:08;9.98;;;9.18;;
46653;SDS011;38960;51.074;17.004;2022-07-26T08:01:33;9.48;;;8.65;;
46653;SDS011;38960;51.074;17.004;2022-07-26T08:03:59;9.23;;;8.52;;
46653;SDS011;38960;51.074;17.004;2022-07-26T08:06:25;9.45;;;8.57;;
46653;SDS011;38960;51.074;17.004;2022-07-26T08:08:51;9.35;;;8.45;;
46653;SDS011;38960;51.074;17.004;2022-07-26T08:11:16;10.02;;;8.75;;
46653;SDS011;38960;51.074;17.004;2022-07-26T08:13:42;10.45;;;9.07;;
46653;SDS011;38960;51.074;17.004;2022-07-26T08:16:08;11.10;;;9.52;;
46653;SDS011;38960;51.074;17.004;2022-07-26T08:18:38;14.43;;;9.82;;
46653;SDS011;38960;51.074;17.004;2022-07-26T08:21:06;9.10;;;8.43;;
46653;SDS011;38960;51.074;17.004;2022-07-26T08:23:31;10.07;;;9.07;;
46653;SDS011;38960;51.074;17.004;2022-07-26T08:25:57;9.23;;;8.38;;
46653;SDS011;38960;51.074;17.004;2022-07-26T08:28:26;9.82;;;9.02;;
46653;SDS011;38960;51.074;17.004;2022-07-26T08:30:52;8.98;;;8.18;;
46653;SDS011;38960;51.074;17.004;2022-07-26T08:33:17;9.73;;;8.82;;
46653;SDS011;38960;51.074;17.004;2022-07-26T08:35:43;10.20;;;9.18;;
46653;SDS011;38960;51.074;17.004;2022-07-26T08:38:11;12.00;;;10.98;;
46653;SDS011;38960;51.074;17.004;2022-07-26T08:40:36;12.25;;;9.15;;
46653;SDS011;38960;51.074;17.004;2022-07-26T08:43:02;9.75;;;8.20;;
46653;SDS011;38960;51.074;17.004;2022-07-26T08:45:29;10.38;;;8.20;;
46653;SDS011;38960;51.074;17.004;2022-07-26T08:47:56;8.75;;;7.93;;
46653;SDS011;38960;51.074;17.004;2022-07-26T08:50:23;10.02;;;8.65;;
46653;SDS011;38960;51.074;17.004;2022-07-26T08:52:50;10.45;;;8.63;;
46653;SDS011;38960;51.074;17.004;2022-07-26T08:55:17;9.60;;;8.80;;
46653;SDS011;38960;51.074;17.004;2022-07-26T08:57:43;10.02;;;9.13;;
46653;SDS011;38960;51.074;17.004;2022-07-26T09:00:26;9.43;;;8.63;;
46653;SDS011;38960;51.074;17.004;2022-07-26T09:02:56;10.38;;;9.43;;
46653;SDS011;38960;51.074;17.004;2022-07-26T09:05:27;10.02;;;9.13;;
46653;SDS011;38960;51.074;17.004;2022-07-26T09:07:55;10.13;;;9.13;;
46653;SDS011;38960;51.074;17.004;2022-07-26T09:10:21;10.20;;;8.93;;
46653;SDS011;38960;51.074;17.004;2022-07-26T09:12:51;11.38;;;9.25;;
46653;SDS011;38960;51.074;17.004;2022-07-26T09:15:21;15.32;;;9.48;;
46653;SDS011;38960;51.074;17.004;2022-07-26T09:17:49;9.27;;;8.48;;
46653;SDS011;38960;51.074;17.004;2022-07-26T09:20:20;9.68;;;9.00;;
46653;SDS011;38960;51.074;17.004;2022-07-26T09:22:56;9.40;;;8.70;;
46653;SDS011;38960;51.074;17.004;2022-07-26T09:25:25;8.63;;;7.90;;
46653;SDS011;38960;51.074;17.004;2022-07-26T09:27:52;9.15;;;8.25;;
46653;SDS011;38960;51.074;17.004;2022-07-26T09:30:18;9.80;;;8.98;;
46653;SDS011;38960;51.074;17.004;2022-07-26T09:32:57;9.65;;;8.70;;
46653;SDS011;38960;51.074;17.004;2022-07-26T09:35:25;8.85;;;8.13;;
46653;SDS011;38960;51.074;17.004;2022-07-26T09:37:51;8.55;;;7.75;;
46653;SDS011;38960;51.074;17.004;2022-07-26T09:40:17;8.68;;;7.95;;
46653;SDS011;38960;51.074;17.004;2022-07-26T09:42:56;8.77;;;7.97;;
46653;SDS011;38960;51.074;17.004;2022-07-26T09:45:22;8.63;;;7.78;;
46653;SDS011;38960;51.074;17.004;2022-07-26T09:47:48;11.25;;;7.80;;
46653;SDS011;38960;51.074;17.004;2022-07-26T09:50:14;9.70;;;8.35;;
46653;SDS011;38960;51.074;17.004;2022-07-26T09:55:33;10.25;;;8.30;;
46653;SDS011;38960;51.074;17.004;2022-07-26T09:58:00;9.23;;;8.48;;
46653;SDS011;38960;51.074;17.004;2022-07-26T10:00:31;9.20;;;8.40;;
46653;SDS011;38960;51.074;17.004;2022-07-26T10:02:58;10.95;;;7.70;;
46653;SDS011;38960;51.074;17.004;2022-07-26T10:05:23;8.20;;;7.60;;
46653;SDS011;38960;51.074;17.004;2022-07-26T10:07:50;7.93;;;7.30;;
46653;SDS011;38960;51.074;17.004;2022-07-26T10:10:18;8.38;;;7.78;;
46653;SDS011;38960;51.074;17.004;2022-07-26T10:12:48;8.43;;;7.78;;
46653;SDS011;38960;51.074;17.004;2022-07-26T10:18:04;8.45;;;7.70;;
46653;SDS011;38960;51.074;17.004;2022-07-26T10:25:58;8.50;;;7.20;;
46653;SDS011;38960;51.074;17.004;2022-07-26T10:28:25;10.43;;;8.13;;
46653;SDS011;38960;51.074;17.004;2022-07-26T10:31:01;8.43;;;7.63;;
46653;SDS011;38960;51.074;17.004;2022-07-26T10:33:51;7.97;;;7.28;;
46653;SDS011;38960;51.074;17.004;2022-07-26T10:41:47;10.13;;;6.72;;
46653;SDS011;38960;51.074;17.004;2022-07-26T10:44:29;8.13;;;7.43;;
46653;SDS011;38960;51.074;17.004;2022-07-26T10:49:42;9.10;;;7.18;;
46653;SDS011;38960;51.074;17.004;2022-07-26T10:52:17;8.23;;;7.53;;
46653;SDS011;38960;51.074;17.004;2022-07-26T10:57:35;8.52;;;7.78;;
46653;SDS011;38960;51.074;17.004;2022-07-26T11:00:05;7.78;;;7.10;;
46653;SDS011;38960;51.074;17.004;2022-07-26T11:02:42;8.38;;;7.38;;
46653;SDS011;38960;51.074;17.004;2022-07-26T11:05:15;7.25;;;6.60;;
46653;SDS011;38960;51.074;17.004;2022-07-26T11:10:13;7.93;;;7.22;;
46653;SDS011;38960;51.074;17.004;2022-07-26T11:12:38;7.35;;;6.85;;
46653;SDS011;38960;51.074;17.004;2022-07-26T11:15:15;8.85;;;8.05;;
46653;SDS011;38960;51.074;17.004;2022-07-26T11:17:41;8.43;;;7.40;;
46653;SDS011;38960;51.074;17.004;2022-07-26T11:20:07;7.38;;;6.78;;
46653;SDS011;38960;51.074;17.004;2022-07-26T11:22:33;7.65;;;6.93;;
46653;SDS011;38960;51.074;17.004;2022-07-26T11:25:00;7.75;;;6.85;;
46653;SDS011;38960;51.074;17.004;2022-07-26T11:27:25;8.07;;;7.20;;
46653;SDS011;38960;51.074;17.004;2022-07-26T11:29:51;8.32;;;7.60;;
46653;SDS011;38960;51.074;17.004;2022-07-26T11:32:17;7.15;;;6.55;;
46653;SDS011;38960;51.074;17.004;2022-07-26T11:34:44;8.88;;;8.10;;
46653;SDS011;38960;51.074;17.004;2022-07-26T11:37:10;10.38;;;9.45;;
46653;SDS011;38960;51.074;17.004;2022-07-26T11:39:36;7.82;;;7.13;;
46653;SDS011;38960;51.074;17.004;2022-07-26T11:44:34;8.10;;;7.35;;
46653;SDS011;38960;51.074;17.004;2022-07-26T11:47:09;8.77;;;7.90;;
46653;SDS011;38960;51.074;17.004;2022-07-26T11:49:38;8.50;;;7.68;;
46653;SDS011;38960;51.074;17.004;2022-07-26T11:52:04;9.48;;;8.50;;
46653;SDS011;38960;51.074;17.004;2022-07-26T11:54:30;8.40;;;7.57;;
46653;SDS011;38960;51.074;17.004;2022-07-26T11:56:58;7.93;;;7.30;;
46653;SDS011;38960;51.074;17.004;2022-07-26T11:59:25;9.13;;;8.23;;
46653;SDS011;38960;51.074;17.004;2022-07-26T12:01:52;8.27;;;7.57;;
46653;SDS011;38960;51.074;17.004;2022-07-26T12:04:23;9.23;;;7.90;;
46653;SDS011;38960;51.074;17.004;2022-07-26T12:06:51;8.90;;;8.05;;
46653;SDS011;38960;51.074;17.004;2022-07-26T12:12:00;10.18;;;8.15;;
46653;SDS011;38960;51.074;17.004;2022-07-26T12:14:27;9.38;;;8.55;;
46653;SDS011;38960;51.074;17.004;2022-07-26T12:16:54;9.55;;;8.65;;
46653;SDS011;38960;51.074;17.004;2022-07-26T12:21:58;9.13;;;8.13;;
46653;SDS011;38960;51.074;17.004;2022-07-26T12:29:30;8.90;;;8.10;;
46653;SDS011;38960;51.074;17.004;2022-07-26T12:37:46;8.70;;;8.00;;
46653;SDS011;38960;51.074;17.004;2022-07-26T12:40:14;8.00;;;7.15;;
46653;SDS011;38960;51.074;17.004;2022-07-26T12:45:16;8.18;;;7.45;;
46653;SDS011;38960;51.074;17.004;2022-07-26T12:47:43;8.05;;;7.45;;
46653;SDS011;38960;51.074;17.004;2022-07-26T12:50:11;8.07;;;7.38;;
46653;SDS011;38960;51.074;17.004;2022-07-26T12:52:38;8.57;;;7.78;;
46653;SDS011;38960;51.074;17.004;2022-07-26T12:55:04;8.05;;;7.35;;
46653;SDS011;38960;51.074;17.004;2022-07-26T12:57:31;8.07;;;7.38;;
46653;SDS011;38960;51.074;17.004;2022-07-26T12:59:57;8.80;;;7.78;;
46653;SDS011;38960;51.074;17.004;2022-07-26T13:02:22;8.50;;;7.68;;
46653;SDS011;38960;51.074;17.004;2022-07-26T13:04:49;8.38;;;7.57;;
46653;SDS011;38960;51.074;17.004;2022-07-26T13:07:15;7.93;;;7.22;;
46653;SDS011;38960;51.074;17.004;2022-07-26T13:09:42;8.40;;;7.55;;
46653;SDS011;38960;51.074;17.004;2022-07-26T13:12:09;8.60;;;7.80;;
46653;SDS011;38960;51.074;17.004;2022-07-26T13:14:35;8.68;;;7.78;;
46653;SDS011;38960;51.074;17.004;2022-07-26T13:17:02;10.00;;;8.10;;
46653;SDS011;38960;51.074;17.004;2022-07-26T13:19:29;8.93;;;7.82;;
46653;SDS011;38960;51.074;17.004;2022-07-26T13:22:06;8.88;;;7.72;;
46653;SDS011;38960;51.074;17.004;2022-07-26T13:24:32;9.43;;;7.60;;
46653;SDS011;38960;51.074;17.004;2022-07-26T13:27:03;8.45;;;7.85;;
46653;SDS011;38960;51.074;17.004;2022-07-26T13:29:30;8.80;;;8.10;;
46653;SDS011;38960;51.074;17.004;2022-07-26T13:31:56;9.25;;;8.05;;
46653;SDS011;38960;51.074;17.004;2022-07-26T13:34:23;8.52;;;7.68;;
46653;SDS011;38960;51.074;17.004;2022-07-26T13:36:50;9.07;;;8.18;;
46653;SDS011;38960;51.074;17.004;2022-07-26T13:39:16;8.80;;;8.00;;
46653;SDS011;38960;51.074;17.004;2022-07-26T13:41:42;7.95;;;7.38;;
46653;SDS011;38960;51.074;17.004;2022-07-26T13:44:07;8.60;;;7.90;;
46653;SDS011;38960;51.074;17.004;2022-07-26T13:46:33;8.80;;;8.10;;
46653;SDS011;38960;51.074;17.004;2022-07-26T13:48:59;9.13;;;8.30;;
46653;SDS011;38960;51.074;17.004;2022-07-26T13:51:25;9.23;;;8.10;;
46653;SDS011;38960;51.074;17.004;2022-07-26T13:54:12;9.05;;;8.20;;
46653;SDS011;38960;51.074;17.004;2022-07-26T13:56:38;10.32;;;7.82;;
46653;SDS011;38960;51.074;17.004;2022-07-26T13:59:04;9.30;;;8.40;;
46653;SDS011;38960;51.074;17.004;2022-07-26T14:01:30;9.00;;;8.20;;
46653;SDS011;38960;51.074;17.004;2022-07-26T14:03:57;9.48;;;8.57;;
46653;SDS011;38960;51.074;17.004;2022-07-26T14:06:22;9.52;;;8.63;;
46653;SDS011;38960;51.074;17.004;2022-07-26T14:08:50;12.07;;;9.15;;
46653;SDS011;38960;51.074;17.004;2022-07-26T14:11:16;8.85;;;8.20;;
46653;SDS011;38960;51.074;17.004;2022-07-26T14:13:41;9.25;;;8.43;;
46653;SDS011;38960;51.074;17.004;2022-07-26T14:16:07;9.82;;;8.90;;
46653;SDS011;38960;51.074;17.004;2022-07-26T14:18:33;9.15;;;8.35;;
46653;SDS011;38960;51.074;17.004;2022-07-26T14:20:59;10.50;;;8.48;;
46653;SDS011;38960;51.074;17.004;2022-07-26T14:23:24;9.20;;;8.50;;
46653;SDS011;38960;51.074;17.004;2022-07-26T14:26:08;9.50;;;8.60;;
46653;SDS011;38960;51.074;17.004;2022-07-26T14:28:34;9.60;;;8.85;;
46653;SDS011;38960;51.074;17.004;2022-07-26T14:30:59;10.77;;;8.48;;
46653;SDS011;38960;51.074;17.004;2022-07-26T14:33:25;9.35;;;8.45;;
46653;SDS011;38960;51.074;17.004;2022-07-26T14:35:50;9.40;;;8.40;;
46653;SDS011;38960;51.074;17.004;2022-07-26T14:38:16;9.40;;;8.40;;
46653;SDS011;38960;51.074;17.004;2022-07-26T14:40:41;10.15;;;8.00;;
46653;SDS011;38960;51.074;17.004;2022-07-26T14:43:07;9.20;;;8.30;;
46653;SDS011;38960;51.074;17.004;2022-07-26T14:45:32;8.82;;;8.15;;
46653;SDS011;38960;51.074;17.004;2022-07-26T14:47:58;9.55;;;8.57;;
46653;SDS011;38960;51.074;17.004;2022-07-26T14:50:23;9.57;;;8.63;;
46653;SDS011;38960;51.074;17.004;2022-07-26T14:52:52;9.07;;;8.40;;
46653;SDS011;38960;51.074;17.004;2022-07-26T14:55:18;9.75;;;8.43;;
46653;SDS011;38960;51.074;17.004;2022-07-26T14:57:44;10.52;;;8.93;;
46653;SDS011;38960;51.074;17.004;2022-07-26T15:00:11;11.13;;;10.23;;
46653;SDS011;38960;51.074;17.004;2022-07-26T15:02:39;11.40;;;10.30;;
46653;SDS011;38960;51.074;17.004;2022-07-26T15:05:06;13.75;;;10.18;;
46653;SDS011;38960;51.074;17.004;2022-07-26T15:07:32;13.02;;;10.43;;
46653;SDS011;38960;51.074;17.004;2022-07-26T15:09:57;11.60;;;10.40;;